GLD1144 SBPJ-SBSN
Flight info
| Callsign | GLD1144 |
|---|---|
| Flight time | 1h 27m |
| Altitude | 40000 |
| Route | OPNUP DCT ITALA DCT RONUB DCT ANRUS DCT GELVU DCT ATIDO |
| Aircraft | C750/M-SDFGIRY/S |
Departure
| Time | 2026-04-18 18:26 |
|---|---|
| Airport | Brigadeiro Lysias Rodrigues Airport (SBPJ) |
Arrival
| Time | 2026-04-18 19:53 |
|---|---|
| Airport | Santarém - Maestro Wilson Fonseca International Airport (SBSN) |
| Time | Latitude | Longitude | Altitude | Speed | Heading |
|---|---|---|---|---|---|
| 2026-04-18 18:13 | -10.29252 | -48.36136 | 772 ft | 0 kts | 210° |
| 2026-04-18 18:21 | -10.29252 | -48.36140 | 772 ft | 1 kts | 261° |
| 2026-04-18 18:21 | -10.29233 | -48.36137 | 743 ft | 7 kts | 43° |
| 2026-04-18 18:21 | -10.29208 | -48.36097 | 745 ft | 5 kts | 104° |
| 2026-04-18 18:22 | -10.29233 | -48.36058 | 746 ft | 8 kts | 123° |
| 2026-04-18 18:22 | -10.29229 | -48.36023 | 747 ft | 5 kts | 36° |
| 2026-04-18 18:22 | -10.29183 | -48.35993 | 746 ft | 9 kts | 31° |
| 2026-04-18 18:22 | -10.29123 | -48.35951 | 747 ft | 11 kts | 38° |
| 2026-04-18 18:23 | -10.29053 | -48.35906 | 746 ft | 13 kts | 40° |
| 2026-04-18 18:23 | -10.29081 | -48.35812 | 747 ft | 19 kts | 125° |
| 2026-04-18 18:23 | -10.29165 | -48.35686 | 749 ft | 23 kts | 123° |
| 2026-04-18 18:23 | -10.29254 | -48.35550 | 756 ft | 23 kts | 123° |
| 2026-04-18 18:24 | -10.29345 | -48.35413 | 759 ft | 23 kts | 124° |
| 2026-04-18 18:24 | -10.29427 | -48.35286 | 763 ft | 20 kts | 123° |
| 2026-04-18 18:24 | -10.29504 | -48.35170 | 765 ft | 21 kts | 123° |
| 2026-04-18 18:24 | -10.29590 | -48.35040 | 768 ft | 23 kts | 124° |
| 2026-04-18 18:25 | -10.29675 | -48.34911 | 770 ft | 23 kts | 122° |
| 2026-04-18 18:25 | -10.29718 | -48.34776 | 772 ft | 16 kts | 84° |
| 2026-04-18 18:25 | -10.29767 | -48.34763 | 773 ft | 8 kts | 254° |
| 2026-04-18 18:25 | -10.29756 | -48.34788 | 773 ft | 3 kts | 304° |
| 2026-04-18 18:26 | -10.29583 | -48.35051 | 767 ft | 103 kts | 305° |
| 2026-04-18 18:26 | -10.29058 | -48.35831 | 1033 ft | 147 kts | 304° |
| 2026-04-18 18:26 | -10.28439 | -48.36744 | 1482 ft | 172 kts | 304° |
| 2026-04-18 18:26 | -10.27744 | -48.37840 | 1941 ft | 197 kts | 302° |
| 2026-04-18 18:27 | -10.26953 | -48.39117 | 2403 ft | 232 kts | 303° |
| 2026-04-18 18:27 | -10.25942 | -48.40531 | 3022 ft | 257 kts | 310° |
| 2026-04-18 18:27 | -10.24394 | -48.41539 | 3773 ft | 269 kts | 338° |
| 2026-04-18 18:27 | -10.22654 | -48.42211 | 4924 ft | 269 kts | 341° |
| 2026-04-18 18:28 | -10.20916 | -48.42915 | 5878 ft | 274 kts | 339° |
| 2026-04-18 18:28 | -10.19135 | -48.43698 | 6835 ft | 278 kts | 337° |
| 2026-04-18 18:28 | -10.17364 | -48.44470 | 7779 ft | 283 kts | 338° |
| 2026-04-18 18:28 | -10.15534 | -48.45247 | 8817 ft | 287 kts | 338° |
| 2026-04-18 18:29 | -10.13668 | -48.46039 | 9761 ft | 293 kts | 337° |
| 2026-04-18 18:29 | -10.11770 | -48.46851 | 10582 ft | 298 kts | 337° |
| 2026-04-18 18:29 | -10.09817 | -48.47687 | 11138 ft | 315 kts | 337° |
| 2026-04-18 18:29 | -10.07713 | -48.48585 | 11305 ft | 342 kts | 337° |
| 2026-04-18 18:30 | -10.05462 | -48.49545 | 11813 ft | 354 kts | 337° |
| 2026-04-18 18:30 | -10.03187 | -48.50517 | 12655 ft | 355 kts | 337° |
| 2026-04-18 18:30 | -10.00888 | -48.51498 | 13310 ft | 361 kts | 337° |
| 2026-04-18 18:30 | -9.98562 | -48.52491 | 14034 ft | 364 kts | 337° |
| 2026-04-18 18:31 | -9.96210 | -48.53494 | 14691 ft | 368 kts | 337° |
| 2026-04-18 18:31 | -9.93840 | -48.54506 | 15346 ft | 372 kts | 337° |
| 2026-04-18 18:31 | -9.91441 | -48.55530 | 16006 ft | 377 kts | 337° |
| 2026-04-18 18:31 | -9.89009 | -48.56569 | 16708 ft | 380 kts | 337° |
| 2026-04-18 18:32 | -9.86554 | -48.57615 | 17410 ft | 385 kts | 337° |
| 2026-04-18 18:32 | -9.84065 | -48.58676 | 18119 ft | 390 kts | 337° |
| 2026-04-18 18:32 | -9.81557 | -48.59746 | 18763 ft | 393 kts | 337° |
| 2026-04-18 18:32 | -9.79024 | -48.60827 | 19432 ft | 397 kts | 336° |
| 2026-04-18 18:33 | -9.76458 | -48.61921 | 20095 ft | 401 kts | 336° |
| 2026-04-18 18:33 | -9.73868 | -48.63024 | 20752 ft | 406 kts | 336° |
| 2026-04-18 18:33 | -9.71253 | -48.64140 | 21450 ft | 409 kts | 336° |
| 2026-04-18 18:33 | -9.68779 | -48.65584 | 22029 ft | 414 kts | 321° |
| 2026-04-18 18:34 | -9.66729 | -48.67635 | 22744 ft | 415 kts | 309° |
| 2026-04-18 18:34 | -9.64937 | -48.69949 | 23388 ft | 420 kts | 307° |
| 2026-04-18 18:34 | -9.63140 | -48.72299 | 23960 ft | 423 kts | 307° |
| 2026-04-18 18:34 | -9.61312 | -48.74657 | 24565 ft | 426 kts | 307° |
| 2026-04-18 18:35 | -9.59468 | -48.77023 | 25148 ft | 429 kts | 307° |
| 2026-04-18 18:35 | -9.57619 | -48.79412 | 25737 ft | 432 kts | 307° |
| 2026-04-18 18:35 | -9.55764 | -48.81818 | 26325 ft | 436 kts | 307° |
| 2026-04-18 18:35 | -9.53884 | -48.84245 | 26924 ft | 439 kts | 307° |
| 2026-04-18 18:36 | -9.52014 | -48.86651 | 27489 ft | 442 kts | 306° |
| 2026-04-18 18:36 | -9.50108 | -48.89110 | 28070 ft | 445 kts | 306° |
| 2026-04-18 18:36 | -9.48189 | -48.91587 | 28644 ft | 449 kts | 306° |
| 2026-04-18 18:36 | -9.46229 | -48.94114 | 29203 ft | 452 kts | 306° |
| 2026-04-18 18:37 | -9.44300 | -48.96600 | 29747 ft | 456 kts | 306° |
| 2026-04-18 18:37 | -9.42340 | -48.99127 | 30200 ft | 459 kts | 306° |
| 2026-04-18 18:37 | -9.40359 | -49.01680 | 30645 ft | 462 kts | 306° |
| 2026-04-18 18:37 | -9.38370 | -49.04243 | 31094 ft | 464 kts | 306° |
| 2026-04-18 18:38 | -9.36369 | -49.06820 | 31530 ft | 467 kts | 306° |
| 2026-04-18 18:38 | -9.34358 | -49.09411 | 31941 ft | 469 kts | 306° |
| 2026-04-18 18:38 | -9.32335 | -49.12015 | 32360 ft | 472 kts | 307° |
| 2026-04-18 18:38 | -9.30301 | -49.14634 | 32764 ft | 474 kts | 307° |
| 2026-04-18 18:39 | -9.28256 | -49.17266 | 33159 ft | 477 kts | 307° |
| 2026-04-18 18:39 | -9.26197 | -49.19915 | 33603 ft | 478 kts | 307° |
| 2026-04-18 18:39 | -9.24145 | -49.22555 | 34146 ft | 476 kts | 307° |
| 2026-04-18 18:39 | -9.22101 | -49.25184 | 34667 ft | 474 kts | 307° |
| 2026-04-18 18:40 | -9.20066 | -49.27802 | 35183 ft | 472 kts | 307° |
| 2026-04-18 18:40 | -9.18038 | -49.30409 | 35708 ft | 471 kts | 307° |
| 2026-04-18 18:40 | -9.16014 | -49.33012 | 36240 ft | 469 kts | 307° |
| 2026-04-18 18:40 | -9.14000 | -49.35599 | 36774 ft | 467 kts | 307° |
| 2026-04-18 18:41 | -9.11993 | -49.38178 | 37330 ft | 466 kts | 307° |
| 2026-04-18 18:41 | -9.09990 | -49.40752 | 37904 ft | 464 kts | 308° |
| 2026-04-18 18:41 | -9.07998 | -49.43311 | 38481 ft | 462 kts | 308° |
| 2026-04-18 18:41 | -9.06012 | -49.45861 | 38964 ft | 461 kts | 307° |
| 2026-04-18 18:42 | -9.04030 | -49.48405 | 39425 ft | 460 kts | 307° |
| 2026-04-18 18:42 | -9.02058 | -49.50937 | 39802 ft | 459 kts | 307° |
| 2026-04-18 18:42 | -9.00061 | -49.53502 | 39800 ft | 470 kts | 307° |
| 2026-04-18 18:42 | -8.98016 | -49.56126 | 39799 ft | 480 kts | 307° |
| 2026-04-18 18:43 | -8.93796 | -49.61537 | 39813 ft | 500 kts | 308° |
| 2026-04-18 18:43 | -8.92360 | -49.63378 | 39820 ft | 506 kts | 308° |
| 2026-04-18 18:44 | -8.87252 | -49.69928 | 39813 ft | 511 kts | 308° |
| 2026-04-18 18:44 | -8.82837 | -49.75585 | 39810 ft | 513 kts | 308° |
| 2026-04-18 18:45 | -8.78408 | -49.81260 | 39816 ft | 514 kts | 308° |
| 2026-04-18 18:45 | -8.74693 | -49.86017 | 39807 ft | 514 kts | 308° |
| 2026-04-18 18:46 | -8.70256 | -49.91695 | 39808 ft | 515 kts | 307° |
| 2026-04-18 18:46 | -8.65791 | -49.97408 | 39803 ft | 518 kts | 307° |
| 2026-04-18 18:47 | -8.61321 | -50.03124 | 39802 ft | 518 kts | 307° |
| 2026-04-18 18:47 | -8.56855 | -50.08832 | 39808 ft | 518 kts | 307° |
| 2026-04-18 18:48 | -8.52416 | -50.14504 | 39809 ft | 517 kts | 307° |
| 2026-04-18 18:48 | -8.47952 | -50.20206 | 39804 ft | 517 kts | 307° |
| 2026-04-18 18:49 | -8.43479 | -50.25916 | 39800 ft | 519 kts | 308° |
| 2026-04-18 18:49 | -8.38998 | -50.31635 | 39810 ft | 519 kts | 308° |
| 2026-04-18 18:50 | -8.34517 | -50.37351 | 39804 ft | 519 kts | 308° |
| 2026-04-18 18:50 | -8.30037 | -50.43063 | 39814 ft | 519 kts | 308° |
| 2026-04-18 18:51 | -8.25549 | -50.48780 | 39802 ft | 520 kts | 308° |
| 2026-04-18 18:51 | -8.21063 | -50.54496 | 39800 ft | 519 kts | 308° |
| 2026-04-18 18:52 | -8.16570 | -50.60217 | 39817 ft | 520 kts | 308° |
| 2026-04-18 18:52 | -8.12079 | -50.65934 | 39814 ft | 519 kts | 308° |
| 2026-04-18 18:53 | -8.07603 | -50.71630 | 39805 ft | 517 kts | 308° |
| 2026-04-18 18:53 | -8.03132 | -50.77317 | 39810 ft | 517 kts | 308° |
| 2026-04-18 18:54 | -7.98657 | -50.83007 | 39816 ft | 517 kts | 308° |
| 2026-04-18 18:54 | -7.94179 | -50.88699 | 39804 ft | 518 kts | 308° |
| 2026-04-18 18:55 | -7.89693 | -50.94397 | 39806 ft | 519 kts | 308° |
| 2026-04-18 18:55 | -7.85203 | -51.00099 | 39801 ft | 519 kts | 308° |
| 2026-04-18 18:56 | -7.80715 | -51.05798 | 39802 ft | 519 kts | 308° |
| 2026-04-18 18:56 | -7.76224 | -51.11496 | 39803 ft | 519 kts | 308° |
| 2026-04-18 18:57 | -7.71732 | -51.17194 | 39797 ft | 519 kts | 308° |
| 2026-04-18 18:57 | -7.67279 | -51.22841 | 39796 ft | 518 kts | 308° |
| 2026-04-18 18:58 | -7.62797 | -51.28518 | 39800 ft | 517 kts | 309° |
| 2026-04-18 18:58 | -7.57942 | -51.33891 | 39805 ft | 519 kts | 313° |
| 2026-04-18 18:59 | -7.53016 | -51.39223 | 39803 ft | 522 kts | 312° |
| 2026-04-18 18:59 | -7.48115 | -51.44591 | 39805 ft | 519 kts | 313° |
| 2026-04-18 19:00 | -7.43184 | -51.49931 | 39805 ft | 520 kts | 313° |
| 2026-04-18 19:00 | -7.38254 | -51.55314 | 39804 ft | 524 kts | 313° |
| 2026-04-18 19:01 | -7.33306 | -51.60680 | 39796 ft | 519 kts | 313° |
| 2026-04-18 19:01 | -7.28398 | -51.66026 | 39794 ft | 520 kts | 313° |
| 2026-04-18 19:02 | -7.23459 | -51.71386 | 39798 ft | 522 kts | 313° |
| 2026-04-18 19:02 | -7.18534 | -51.76742 | 39797 ft | 520 kts | 313° |
| 2026-04-18 19:03 | -7.13604 | -51.82093 | 39801 ft | 519 kts | 313° |
| 2026-04-18 19:03 | -7.08701 | -51.87417 | 39799 ft | 519 kts | 313° |
| 2026-04-18 19:04 | -7.01335 | -51.95409 | 39804 ft | 520 kts | 313° |
| 2026-04-18 19:04 | -6.96415 | -52.00747 | 39812 ft | 520 kts | 313° |
| 2026-04-18 19:05 | -6.89036 | -52.08747 | 39809 ft | 520 kts | 313° |
| 2026-04-18 19:06 | -6.84120 | -52.14075 | 39812 ft | 520 kts | 313° |
| 2026-04-18 19:06 | -6.76713 | -52.22100 | 39814 ft | 521 kts | 313° |
| 2026-04-18 19:07 | -6.71777 | -52.27445 | 39807 ft | 520 kts | 313° |
| 2026-04-18 19:07 | -6.66851 | -52.32778 | 39808 ft | 522 kts | 313° |
| 2026-04-18 19:08 | -6.61950 | -52.38082 | 39805 ft | 520 kts | 313° |
| 2026-04-18 19:08 | -6.57013 | -52.43424 | 39805 ft | 522 kts | 313° |
| 2026-04-18 19:09 | -6.52073 | -52.48766 | 39809 ft | 521 kts | 313° |
| 2026-04-18 19:09 | -6.47132 | -52.54111 | 39808 ft | 521 kts | 313° |
| 2026-04-18 19:10 | -6.42165 | -52.59479 | 39808 ft | 521 kts | 313° |
| 2026-04-18 19:10 | -6.37233 | -52.64807 | 39808 ft | 520 kts | 313° |
| 2026-04-18 19:11 | -6.32257 | -52.70099 | 39802 ft | 521 kts | 315° |
| 2026-04-18 19:11 | -6.27147 | -52.75270 | 39805 ft | 521 kts | 315° |
| 2026-04-18 19:12 | -6.22046 | -52.80451 | 39803 ft | 522 kts | 315° |
| 2026-04-18 19:12 | -6.16927 | -52.85630 | 39803 ft | 522 kts | 315° |
| 2026-04-18 19:13 | -6.11856 | -52.90772 | 39809 ft | 521 kts | 315° |
| 2026-04-18 19:13 | -6.06745 | -52.95943 | 39807 ft | 521 kts | 315° |
| 2026-04-18 19:14 | -6.01603 | -53.01151 | 39811 ft | 521 kts | 315° |
| 2026-04-18 19:14 | -5.96502 | -53.06311 | 39823 ft | 520 kts | 315° |
| 2026-04-18 19:15 | -5.91403 | -53.11479 | 39823 ft | 521 kts | 315° |
| 2026-04-18 19:15 | -5.86288 | -53.16646 | 39817 ft | 521 kts | 315° |
| 2026-04-18 19:16 | -5.81210 | -53.21775 | 39813 ft | 521 kts | 315° |
| 2026-04-18 19:16 | -5.76103 | -53.26944 | 39810 ft | 522 kts | 315° |
| 2026-04-18 19:17 | -5.70986 | -53.32111 | 39809 ft | 522 kts | 315° |
| 2026-04-18 19:17 | -5.65870 | -53.37284 | 39809 ft | 522 kts | 315° |
| 2026-04-18 19:18 | -5.60749 | -53.42453 | 39812 ft | 521 kts | 315° |
| 2026-04-18 19:18 | -5.55638 | -53.47617 | 39812 ft | 521 kts | 315° |
| 2026-04-18 19:19 | -5.50524 | -53.52778 | 39808 ft | 522 kts | 315° |
| 2026-04-18 19:19 | -5.45394 | -53.57957 | 39809 ft | 523 kts | 315° |
| 2026-04-18 19:20 | -5.40268 | -53.63129 | 39810 ft | 523 kts | 315° |
| 2026-04-18 19:20 | -5.35144 | -53.68305 | 39807 ft | 523 kts | 315° |
| 2026-04-18 19:21 | -5.30037 | -53.73451 | 39810 ft | 523 kts | 315° |
| 2026-04-18 19:21 | -5.24908 | -53.78626 | 39813 ft | 523 kts | 315° |
| 2026-04-18 19:22 | -5.19777 | -53.83798 | 39816 ft | 523 kts | 315° |
| 2026-04-18 19:22 | -5.14641 | -53.88976 | 39817 ft | 523 kts | 315° |
| 2026-04-18 19:23 | -5.09516 | -53.94138 | 39815 ft | 522 kts | 315° |
| 2026-04-18 19:23 | -5.04388 | -53.99304 | 39810 ft | 523 kts | 315° |
| 2026-04-18 19:24 | -4.99236 | -54.04491 | 39811 ft | 526 kts | 315° |
| 2026-04-18 19:24 | -4.93774 | -54.09360 | 39798 ft | 526 kts | 326° |
| 2026-04-18 19:25 | -4.87430 | -54.12848 | 39809 ft | 527 kts | 335° |
| 2026-04-18 19:25 | -4.81331 | -54.15822 | 39826 ft | 529 kts | 332° |
| 2026-04-18 19:26 | -4.74919 | -54.19441 | 39820 ft | 529 kts | 332° |
| 2026-04-18 19:26 | -4.68351 | -54.22787 | 39816 ft | 529 kts | 333° |
| 2026-04-18 19:27 | -4.62934 | -54.25740 | 39809 ft | 529 kts | 332° |
| 2026-04-18 19:27 | -4.56425 | -54.29167 | 39814 ft | 528 kts | 333° |
| 2026-04-18 19:28 | -4.49975 | -54.32603 | 39815 ft | 528 kts | 332° |
| 2026-04-18 19:28 | -4.43441 | -54.36075 | 39818 ft | 528 kts | 333° |
| 2026-04-18 19:29 | -4.36991 | -54.39493 | 39822 ft | 528 kts | 332° |
| 2026-04-18 19:29 | -4.30497 | -54.42948 | 39824 ft | 529 kts | 332° |
| 2026-04-18 19:30 | -4.23985 | -54.46396 | 39825 ft | 530 kts | 332° |
| 2026-04-18 19:30 | -4.17462 | -54.49864 | 39829 ft | 530 kts | 332° |
| 2026-04-18 19:31 | -4.14200 | -54.51586 | 39490 ft | 534 kts | 333° |
| 2026-04-18 19:31 | -4.10925 | -54.53321 | 38778 ft | 529 kts | 332° |
| 2026-04-18 19:31 | -4.07704 | -54.55037 | 38050 ft | 522 kts | 332° |
| 2026-04-18 19:31 | -4.04506 | -54.56738 | 37377 ft | 519 kts | 333° |
| 2026-04-18 19:32 | -4.01318 | -54.58425 | 36710 ft | 521 kts | 332° |
| 2026-04-18 19:32 | -3.98039 | -54.60159 | 35988 ft | 527 kts | 332° |
| 2026-04-18 19:32 | -3.94854 | -54.61850 | 35314 ft | 525 kts | 332° |
| 2026-04-18 19:32 | -3.91597 | -54.63583 | 34606 ft | 532 kts | 332° |
| 2026-04-18 19:33 | -3.88250 | -54.65357 | 33875 ft | 542 kts | 332° |
| 2026-04-18 19:33 | -3.84980 | -54.67087 | 33274 ft | 536 kts | 332° |
| 2026-04-18 19:33 | -3.81698 | -54.68827 | 32572 ft | 531 kts | 332° |
| 2026-04-18 19:33 | -3.78429 | -54.70562 | 31877 ft | 536 kts | 332° |
| 2026-04-18 19:34 | -3.75112 | -54.72321 | 31158 ft | 539 kts | 332° |
| 2026-04-18 19:34 | -3.71812 | -54.74068 | 30451 ft | 535 kts | 332° |
| 2026-04-18 19:34 | -3.68534 | -54.75804 | 29728 ft | 530 kts | 332° |
| 2026-04-18 19:34 | -3.65297 | -54.77521 | 29017 ft | 523 kts | 332° |
| 2026-04-18 19:35 | -3.62096 | -54.79217 | 28336 ft | 519 kts | 332° |
| 2026-04-18 19:35 | -3.58918 | -54.80900 | 27662 ft | 514 kts | 332° |
| 2026-04-18 19:35 | -3.55779 | -54.82563 | 26993 ft | 509 kts | 332° |
| 2026-04-18 19:35 | -3.52660 | -54.84216 | 26327 ft | 504 kts | 332° |
| 2026-04-18 19:36 | -3.49576 | -54.85850 | 25671 ft | 499 kts | 333° |
| 2026-04-18 19:36 | -3.46515 | -54.87471 | 25021 ft | 495 kts | 333° |
| 2026-04-18 19:36 | -3.43488 | -54.89073 | 24376 ft | 490 kts | 333° |
| 2026-04-18 19:36 | -3.40488 | -54.90662 | 23737 ft | 486 kts | 333° |
| 2026-04-18 19:37 | -3.37512 | -54.92239 | 23055 ft | 481 kts | 333° |
| 2026-04-18 19:37 | -3.34575 | -54.93793 | 22429 ft | 475 kts | 333° |
| 2026-04-18 19:37 | -3.31667 | -54.95333 | 21807 ft | 471 kts | 333° |
| 2026-04-18 19:37 | -3.28767 | -54.96812 | 21180 ft | 465 kts | 336° |
| 2026-04-18 19:38 | -3.25671 | -54.97629 | 20557 ft | 458 kts | 354° |
| 2026-04-18 19:38 | -3.22512 | -54.97569 | 19960 ft | 452 kts | 9° |
| 2026-04-18 19:38 | -3.19524 | -54.96672 | 19371 ft | 446 kts | 25° |
| 2026-04-18 19:38 | -3.16804 | -54.95226 | 18811 ft | 442 kts | 30° |
| 2026-04-18 19:39 | -3.14139 | -54.93716 | 18230 ft | 438 kts | 30° |
| 2026-04-18 19:39 | -3.11488 | -54.92216 | 17603 ft | 434 kts | 30° |
| 2026-04-18 19:39 | -3.08859 | -54.90758 | 17038 ft | 430 kts | 30° |
| 2026-04-18 19:39 | -3.06253 | -54.89316 | 16465 ft | 427 kts | 30° |
| 2026-04-18 19:40 | -3.03666 | -54.87868 | 15905 ft | 423 kts | 30° |
| 2026-04-18 19:40 | -3.01114 | -54.86436 | 15349 ft | 419 kts | 30° |
| 2026-04-18 19:40 | -2.98575 | -54.85020 | 14801 ft | 415 kts | 30° |
| 2026-04-18 19:40 | -2.96059 | -54.83621 | 14255 ft | 411 kts | 30° |
| 2026-04-18 19:41 | -2.93569 | -54.82231 | 13714 ft | 408 kts | 30° |
| 2026-04-18 19:41 | -2.91103 | -54.80853 | 13143 ft | 404 kts | 29° |
| 2026-04-18 19:41 | -2.88657 | -54.79488 | 12607 ft | 401 kts | 30° |
| 2026-04-18 19:41 | -2.86223 | -54.78131 | 12085 ft | 399 kts | 30° |
| 2026-04-18 19:42 | -2.83814 | -54.76788 | 11561 ft | 394 kts | 29° |
| 2026-04-18 19:42 | -2.81510 | -54.75503 | 11058 ft | 362 kts | 29° |
| 2026-04-18 19:42 | -2.79391 | -54.74321 | 10594 ft | 335 kts | 30° |
| 2026-04-18 19:42 | -2.77441 | -54.73234 | 10186 ft | 304 kts | 30° |
| 2026-04-18 19:43 | -2.75678 | -54.72250 | 9809 ft | 288 kts | 30° |
| 2026-04-18 19:43 | -2.73955 | -54.71289 | 9422 ft | 281 kts | 30° |
| 2026-04-18 19:43 | -2.72268 | -54.70348 | 9170 ft | 276 kts | 29° |
| 2026-04-18 19:43 | -2.70581 | -54.69407 | 8829 ft | 278 kts | 29° |
| 2026-04-18 19:44 | -2.68889 | -54.68463 | 8466 ft | 278 kts | 29° |
| 2026-04-18 19:44 | -2.67202 | -54.67523 | 8104 ft | 276 kts | 29° |
| 2026-04-18 19:44 | -2.63866 | -54.65662 | 7383 ft | 273 kts | 29° |
| 2026-04-18 19:45 | -2.62215 | -54.64742 | 7022 ft | 269 kts | 29° |
| 2026-04-18 19:45 | -2.60615 | -54.63850 | 6673 ft | 258 kts | 29° |
| 2026-04-18 19:45 | -2.59073 | -54.62990 | 6336 ft | 249 kts | 29° |
| 2026-04-18 19:45 | -2.57574 | -54.62154 | 6000 ft | 244 kts | 29° |
| 2026-04-18 19:46 | -2.56096 | -54.61330 | 5676 ft | 242 kts | 28° |
| 2026-04-18 19:46 | -2.54632 | -54.60514 | 5358 ft | 240 kts | 28° |
| 2026-04-18 19:46 | -2.53179 | -54.59704 | 5047 ft | 238 kts | 28° |
| 2026-04-18 19:46 | -2.51730 | -54.58896 | 4733 ft | 238 kts | 28° |
| 2026-04-18 19:47 | -2.50285 | -54.58093 | 4415 ft | 236 kts | 28° |
| 2026-04-18 19:47 | -2.48809 | -54.57408 | 4043 ft | 232 kts | 13° |
| 2026-04-18 19:47 | -2.47256 | -54.57490 | 3865 ft | 215 kts | 342° |
| 2026-04-18 19:47 | -2.45973 | -54.58119 | 3995 ft | 204 kts | 331° |
| 2026-04-18 19:48 | -2.44715 | -54.58817 | 3995 ft | 209 kts | 331° |
| 2026-04-18 19:48 | -2.43434 | -54.59526 | 3995 ft | 211 kts | 331° |
| 2026-04-18 19:48 | -2.42159 | -54.60237 | 3978 ft | 209 kts | 330° |
| 2026-04-18 19:48 | -2.40893 | -54.60994 | 3627 ft | 213 kts | 327° |
| 2026-04-18 19:49 | -2.39756 | -54.61854 | 3267 ft | 190 kts | 311° |
| 2026-04-18 19:49 | -2.39376 | -54.63003 | 2817 ft | 168 kts | 266° |
| 2026-04-18 19:49 | -2.39694 | -54.64119 | 2485 ft | 172 kts | 256° |
| 2026-04-18 19:49 | -2.39971 | -54.65314 | 2364 ft | 179 kts | 260° |
| 2026-04-18 19:50 | -2.40174 | -54.66553 | 2242 ft | 181 kts | 263° |
| 2026-04-18 19:50 | -2.40363 | -54.67782 | 2095 ft | 175 kts | 262° |
| 2026-04-18 19:50 | -2.40551 | -54.68952 | 1955 ft | 164 kts | 262° |
| 2026-04-18 19:50 | -2.40728 | -54.70046 | 1779 ft | 155 kts | 262° |
| 2026-04-18 19:51 | -2.40890 | -54.71041 | 1567 ft | 137 kts | 262° |
| 2026-04-18 19:51 | -2.41038 | -54.71944 | 1395 ft | 126 kts | 262° |
| 2026-04-18 19:51 | -2.41175 | -54.72784 | 1254 ft | 120 kts | 262° |
| 2026-04-18 19:51 | -2.41309 | -54.73603 | 1082 ft | 119 kts | 262° |
| 2026-04-18 19:52 | -2.41443 | -54.74416 | 932 ft | 118 kts | 263° |
| 2026-04-18 19:52 | -2.41576 | -54.75220 | 784 ft | 117 kts | 262° |
| 2026-04-18 19:52 | -2.41711 | -54.76007 | 672 ft | 114 kts | 264° |
| 2026-04-18 19:52 | -2.41832 | -54.76782 | 546 ft | 113 kts | 263° |
| 2026-04-18 19:53 | -2.41958 | -54.77565 | 385 ft | 115 kts | 264° |
| 2026-04-18 19:53 | -2.42086 | -54.78356 | 215 ft | 115 kts | 263° |
| 2026-04-18 19:53 | -2.42245 | -54.79384 | 202 ft | 15 kts | 283° |
| 2026-04-18 19:54 | -2.42263 | -54.79395 | 211 ft | 11 kts | 90° |
| 2026-04-18 19:54 | -2.42237 | -54.79268 | 201 ft | 24 kts | 79° |
| 2026-04-18 19:54 | -2.42210 | -54.79107 | 204 ft | 23 kts | 81° |
| 2026-04-18 19:54 | -2.42184 | -54.78939 | 208 ft | 25 kts | 82° |
| 2026-04-18 19:55 | -2.42170 | -54.78780 | 205 ft | 21 kts | 110° |
| 2026-04-18 19:55 | -2.42253 | -54.78689 | 203 ft | 8 kts | 139° |
| 2026-04-18 19:55 | -2.42289 | -54.78658 | 203 ft | 0 kts | 137° |
| 2026-04-18 19:56 | -2.42292 | -54.78655 | 203 ft | 2 kts | 135° |
| 2026-04-18 19:56 | -2.42313 | -54.78634 | 202 ft | 6 kts | 134° |
| 2026-04-18 19:56 | -2.42345 | -54.78602 | 203 ft | 6 kts | 133° |
| 2026-04-18 19:57 | -2.42383 | -54.78601 | 203 ft | 4 kts | 218° |
| 2026-04-18 19:57 | -2.42386 | -54.78626 | 204 ft | 3 kts | 298° |
| 2026-04-18 19:57 | -2.42374 | -54.78630 | 203 ft | 2 kts | 10° |
| 2026-04-18 19:57 | -2.42365 | -54.78625 | 203 ft | 0 kts | 24° |